KSVC  Grant County Airport

Add Bookmark

Silver City, New Mexico, United States

Status Useage IATA
Operational Public SVC
Latitude Longitude
32° 38' 11" N 108° 9' 22" W
32.636547 -108.156385
Local (DST -6) UTC (GMT -7)
Aug 28, 2014 05:04 Aug 28, 2014 11:04
Sunrise-Sunset Local UTC
Begin Civil Twilight 06:19 12:19
Sunrise 06:44 12:44
Sunset 07:42 01:42
End Civil Twilight 08:08 02:08

Current Weather

METAR Observed VFR
KSVC 281055Z AUTO 34006KT 10SM CLR 15/11 A3022 Thu, Aug 28, 2014 @ 10:55 UTC
(9 Minutes ago)
Visual Flight Rules
Wind Visibility Clouds Conditions
340° at 6 knots (7 mph) 10 statute miles
  • Clear skies
  • No significant weather
Temperatures Readings Precipitation
Current Temp 15°C (59°F)
Dewpoint 11°C (52°F)
Humidity 77%
Altimeter 30.22"Hg
Sea Level Pressure 1023mb
Field Elevation 5443.01'
None Recorded

Additional weather within a 50nm radius of KSVC

Map ICAO Location
KDMN 31.5nm S (135°)
KLSB 32.6nm S (236°)

24 Hour Weather History

Loading
-

24 Hour Weather Graphs

Loading
-

CheckWX.com is intended as a tool to help pilots better visualize weather data. It is not intended as a substitute for an official weather briefing obtained from a Flight Service Station. CheckWX.com does not meet the FAA requirements for an official pre-flight weather briefing. Therefore, it's important that pilots still call and obtain an official FSS pre-flight weather briefing.